sensor_id;sensor_type;location;lat;lon;timestamp;temperature;humidity
32614;DHT22;19031;51.400;6.770;2022-08-25T00:00:18;21.80;99.90
32614;DHT22;19031;51.400;6.770;2022-08-25T00:02:44;21.70;99.90
32614;DHT22;19031;51.400;6.770;2022-08-25T00:05:10;21.60;99.90
32614;DHT22;19031;51.400;6.770;2022-08-25T00:07:36;21.60;99.90
32614;DHT22;19031;51.400;6.770;2022-08-25T00:10:03;21.60;99.90
32614;DHT22;19031;51.400;6.770;2022-08-25T00:12:29;21.50;99.90
32614;DHT22;19031;51.400;6.770;2022-08-25T00:14:55;21.50;1.00
32614;DHT22;19031;51.400;6.770;2022-08-25T00:17:20;21.40;1.00
32614;DHT22;19031;51.400;6.770;2022-08-25T00:19:46;21.40;1.00
32614;DHT22;19031;51.400;6.770;2022-08-25T00:22:12;21.30;1.00
32614;DHT22;19031;51.400;6.770;2022-08-25T00:24:37;21.30;1.00
32614;DHT22;19031;51.400;6.770;2022-08-25T00:27:04;21.30;1.00
32614;DHT22;19031;51.400;6.770;2022-08-25T00:29:31;21.30;1.00
32614;DHT22;19031;51.400;6.770;2022-08-25T00:31:58;21.20;1.00
32614;DHT22;19031;51.400;6.770;2022-08-25T00:34:31;21.10;1.00
32614;DHT22;19031;51.400;6.770;2022-08-25T00:36:58;21.00;1.00
32614;DHT22;19031;51.400;6.770;2022-08-25T00:39:24;21.00;1.00
32614;DHT22;19031;51.400;6.770;2022-08-25T00:41:52;21.00;1.00
32614;DHT22;19031;51.400;6.770;2022-08-25T00:44:18;21.00;1.00
32614;DHT22;19031;51.400;6.770;2022-08-25T00:46:50;21.00;1.00
32614;DHT22;19031;51.400;6.770;2022-08-25T00:49:22;21.00;1.00
32614;DHT22;19031;51.400;6.770;2022-08-25T00:51:55;21.00;1.00
32614;DHT22;19031;51.400;6.770;2022-08-25T00:54:26;21.00;1.00
32614;DHT22;19031;51.400;6.770;2022-08-25T00:56:54;20.90;1.00
32614;DHT22;19031;51.400;6.770;2022-08-25T00:59:22;20.90;1.00
32614;DHT22;19031;51.400;6.770;2022-08-25T01:01:49;20.90;1.00
32614;DHT22;19031;51.400;6.770;2022-08-25T01:04:16;20.80;1.00
32614;DHT22;19031;51.400;6.770;2022-08-25T01:06:42;20.80;1.00
32614;DHT22;19031;51.400;6.770;2022-08-25T01:09:14;20.70;1.00
32614;DHT22;19031;51.400;6.770;2022-08-25T01:11:44;20.70;1.00
32614;DHT22;19031;51.400;6.770;2022-08-25T01:14:14;20.60;1.00
32614;DHT22;19031;51.400;6.770;2022-08-25T01:16:40;20.60;1.00
32614;DHT22;19031;51.400;6.770;2022-08-25T01:19:09;20.50;1.00
32614;DHT22;19031;51.400;6.770;2022-08-25T01:21:40;20.40;1.00
32614;DHT22;19031;51.400;6.770;2022-08-25T01:24:06;20.40;1.00
32614;DHT22;19031;51.400;6.770;2022-08-25T01:26:34;20.40;1.00
32614;DHT22;19031;51.400;6.770;2022-08-25T01:29:03;20.30;1.00
32614;DHT22;19031;51.400;6.770;2022-08-25T01:31:55;20.30;1.00
32614;DHT22;19031;51.400;6.770;2022-08-25T01:34:24;20.30;1.00
32614;DHT22;19031;51.400;6.770;2022-08-25T01:36:50;20.30;1.00
32614;DHT22;19031;51.400;6.770;2022-08-25T01:39:16;20.30;1.00
32614;DHT22;19031;51.400;6.770;2022-08-25T01:42:03;20.20;1.00
32614;DHT22;19031;51.400;6.770;2022-08-25T01:44:43;20.20;1.00
32614;DHT22;19031;51.400;6.770;2022-08-25T01:47:10;20.20;1.00
32614;DHT22;19031;51.400;6.770;2022-08-25T01:49:35;20.10;1.00
32614;DHT22;19031;51.400;6.770;2022-08-25T01:52:10;20.10;1.00
32614;DHT22;19031;51.400;6.770;2022-08-25T01:54:36;20.10;1.00
32614;DHT22;19031;51.400;6.770;2022-08-25T01:57:01;20.10;1.00
32614;DHT22;19031;51.400;6.770;2022-08-25T01:59:27;19.90;1.00
32614;DHT22;19031;51.400;6.770;2022-08-25T02:01:53;19.90;1.00
32614;DHT22;19031;51.400;6.770;2022-08-25T02:04:19;19.90;1.00
32614;DHT22;19031;51.400;6.770;2022-08-25T02:06:44;19.90;1.00
32614;DHT22;19031;51.400;6.770;2022-08-25T02:09:13;19.90;1.00
32614;DHT22;19031;51.400;6.770;2022-08-25T02:11:43;19.80;1.00
32614;DHT22;19031;51.400;6.770;2022-08-25T02:14:10;19.80;1.00
32614;DHT22;19031;51.400;6.770;2022-08-25T02:16:38;19.80;1.00
32614;DHT22;19031;51.400;6.770;2022-08-25T02:19:09;19.70;1.00
32614;DHT22;19031;51.400;6.770;2022-08-25T02:21:36;19.70;1.00
32614;DHT22;19031;51.400;6.770;2022-08-25T02:24:03;19.70;1.00
32614;DHT22;19031;51.400;6.770;2022-08-25T02:26:29;19.70;1.00
32614;DHT22;19031;51.400;6.770;2022-08-25T02:28:55;19.60;1.00
32614;DHT22;19031;51.400;6.770;2022-08-25T02:31:22;19.70;1.00
32614;DHT22;19031;51.400;6.770;2022-08-25T02:33:49;19.70;1.00
32614;DHT22;19031;51.400;6.770;2022-08-25T02:36:14;19.60;1.00
32614;DHT22;19031;51.400;6.770;2022-08-25T02:38:40;19.50;1.00
32614;DHT22;19031;51.400;6.770;2022-08-25T02:41:15;19.50;1.00
32614;DHT22;19031;51.400;6.770;2022-08-25T02:43:43;19.60;1.00
32614;DHT22;19031;51.400;6.770;2022-08-25T02:46:10;19.50;1.00
32614;DHT22;19031;51.400;6.770;2022-08-25T02:48:36;19.50;1.00
32614;DHT22;19031;51.400;6.770;2022-08-25T02:51:03;19.50;1.00
32614;DHT22;19031;51.400;6.770;2022-08-25T02:53:28;19.40;1.00
32614;DHT22;19031;51.400;6.770;2022-08-25T02:55:55;19.40;1.00
32614;DHT22;19031;51.400;6.770;2022-08-25T02:58:20;19.40;3.50
32614;DHT22;19031;51.400;6.770;2022-08-25T03:00:47;19.40;1.00
32614;DHT22;19031;51.400;6.770;2022-08-25T03:03:13;19.30;1.00
32614;DHT22;19031;51.400;6.770;2022-08-25T03:05:39;19.30;1.00
32614;DHT22;19031;51.400;6.770;2022-08-25T03:08:05;19.20;1.00
32614;DHT22;19031;51.400;6.770;2022-08-25T03:10:31;19.20;3.80
32614;DHT22;19031;51.400;6.770;2022-08-25T03:12:57;19.20;1.00
32614;DHT22;19031;51.400;6.770;2022-08-25T03:15:23;19.20;2.50
32614;DHT22;19031;51.400;6.770;2022-08-25T03:17:53;19.10;4.80
32614;DHT22;19031;51.400;6.770;2022-08-25T03:20:20;19.20;5.10
32614;DHT22;19031;51.400;6.770;2022-08-25T03:22:46;19.10;7.30
32614;DHT22;19031;51.400;6.770;2022-08-25T03:25:12;19.00;12.30
32614;DHT22;19031;51.400;6.770;2022-08-25T03:28:07;19.10;15.80
32614;DHT22;19031;51.400;6.770;2022-08-25T03:30:33;19.00;14.00
32614;DHT22;19031;51.400;6.770;2022-08-25T03:32:59;19.00;22.10
32614;DHT22;19031;51.400;6.770;2022-08-25T03:35:24;18.90;14.30
32614;DHT22;19031;51.400;6.770;2022-08-25T03:37:54;18.90;17.70
32614;DHT22;19031;51.400;6.770;2022-08-25T03:40:20;18.90;15.40
32614;DHT22;19031;51.400;6.770;2022-08-25T03:42:46;19.00;15.80
32614;DHT22;19031;51.400;6.770;2022-08-25T03:45:13;18.80;17.40
32614;DHT22;19031;51.400;6.770;2022-08-25T03:47:40;18.90;19.30
32614;DHT22;19031;51.400;6.770;2022-08-25T03:50:08;18.80;24.30
32614;DHT22;19031;51.400;6.770;2022-08-25T03:52:35;18.80;25.40
32614;DHT22;19031;51.400;6.770;2022-08-25T03:55:03;18.90;30.00
32614;DHT22;19031;51.400;6.770;2022-08-25T03:57:29;18.80;27.20
32614;DHT22;19031;51.400;6.770;2022-08-25T03:59:55;18.80;27.20
32614;DHT22;19031;51.400;6.770;2022-08-25T04:02:21;18.80;30.60
32614;DHT22;19031;51.400;6.770;2022-08-25T04:04:46;18.80;30.90
32614;DHT22;19031;51.400;6.770;2022-08-25T04:07:12;18.80;28.60
32614;DHT22;19031;51.400;6.770;2022-08-25T04:09:38;18.70;28.80
32614;DHT22;19031;51.400;6.770;2022-08-25T04:12:03;18.70;28.60
32614;DHT22;19031;51.400;6.770;2022-08-25T04:14:29;18.60;29.40
32614;DHT22;19031;51.400;6.770;2022-08-25T04:16:55;18.60;26.60
32614;DHT22;19031;51.400;6.770;2022-08-25T04:19:21;18.60;25.20
32614;DHT22;19031;51.400;6.770;2022-08-25T04:21:47;18.60;26.90
32614;DHT22;19031;51.400;6.770;2022-08-25T04:24:13;18.50;24.60
32614;DHT22;19031;51.400;6.770;2022-08-25T04:26:42;18.50;26.80
32614;DHT22;19031;51.400;6.770;2022-08-25T04:29:09;18.60;29.70
32614;DHT22;19031;51.400;6.770;2022-08-25T04:31:37;18.40;34.40
32614;DHT22;19031;51.400;6.770;2022-08-25T04:34:04;18.50;38.90
32614;DHT22;19031;51.400;6.770;2022-08-25T04:36:30;18.50;39.90
32614;DHT22;19031;51.400;6.770;2022-08-25T04:38:57;18.50;39.40
32614;DHT22;19031;51.400;6.770;2022-08-25T04:41:23;18.50;32.10
32614;DHT22;19031;51.400;6.770;2022-08-25T04:43:49;18.50;38.80
32614;DHT22;19031;51.400;6.770;2022-08-25T04:46:24;18.50;36.80
32614;DHT22;19031;51.400;6.770;2022-08-25T04:48:51;18.50;35.50
32614;DHT22;19031;51.400;6.770;2022-08-25T04:51:20;18.50;31.40
32614;DHT22;19031;51.400;6.770;2022-08-25T04:53:48;18.40;34.70
32614;DHT22;19031;51.400;6.770;2022-08-25T04:56:16;18.40;31.60
32614;DHT22;19031;51.400;6.770;2022-08-25T04:58:43;18.40;32.40
32614;DHT22;19031;51.400;6.770;2022-08-25T05:01:22;18.50;30.90
32614;DHT22;19031;51.400;6.770;2022-08-25T05:03:55;18.40;34.70
32614;DHT22;19031;51.400;6.770;2022-08-25T05:06:21;18.40;37.60
32614;DHT22;19031;51.400;6.770;2022-08-25T05:08:47;18.50;43.40
32614;DHT22;19031;51.400;6.770;2022-08-25T05:11:14;18.50;47.30
32614;DHT22;19031;51.400;6.770;2022-08-25T05:13:43;18.60;43.80
32614;DHT22;19031;51.400;6.770;2022-08-25T05:16:09;18.50;45.10
32614;DHT22;19031;51.400;6.770;2022-08-25T05:18:35;18.60;46.50
32614;DHT22;19031;51.400;6.770;2022-08-25T05:21:04;18.70;49.00
32614;DHT22;19031;51.400;6.770;2022-08-25T05:23:30;18.70;49.80
32614;DHT22;19031;51.400;6.770;2022-08-25T05:26:02;18.80;51.60
32614;DHT22;19031;51.400;6.770;2022-08-25T05:28:28;18.70;50.20
32614;DHT22;19031;51.400;6.770;2022-08-25T05:30:57;18.80;51.30
32614;DHT22;19031;51.400;6.770;2022-08-25T05:33:23;18.80;50.30
32614;DHT22;19031;51.400;6.770;2022-08-25T05:35:49;18.90;50.60
32614;DHT22;19031;51.400;6.770;2022-08-25T05:38:15;19.00;49.30
32614;DHT22;19031;51.400;6.770;2022-08-25T05:40:41;19.00;45.50
32614;DHT22;19031;51.400;6.770;2022-08-25T05:43:07;19.10;41.90
32614;DHT22;19031;51.400;6.770;2022-08-25T05:45:33;19.20;37.60
32614;DHT22;19031;51.400;6.770;2022-08-25T05:47:58;19.30;37.10
32614;DHT22;19031;51.400;6.770;2022-08-25T05:50:24;19.40;37.00
32614;DHT22;19031;51.400;6.770;2022-08-25T05:52:50;19.50;32.40
32614;DHT22;19031;51.400;6.770;2022-08-25T05:55:15;19.60;33.70
32614;DHT22;19031;51.400;6.770;2022-08-25T05:57:41;19.70;31.20
32614;DHT22;19031;51.400;6.770;2022-08-25T06:00:08;19.80;30.30
32614;DHT22;19031;51.400;6.770;2022-08-25T06:02:33;19.90;28.60
32614;DHT22;19031;51.400;6.770;2022-08-25T06:05:06;20.00;26.50
32614;DHT22;19031;51.400;6.770;2022-08-25T06:07:32;20.10;23.10
32614;DHT22;19031;51.400;6.770;2022-08-25T06:09:58;20.20;16.70
32614;DHT22;19031;51.400;6.770;2022-08-25T06:12:24;20.30;15.80
32614;DHT22;19031;51.400;6.770;2022-08-25T06:14:49;20.50;8.60
32614;DHT22;19031;51.400;6.770;2022-08-25T06:17:15;20.60;5.90
32614;DHT22;19031;51.400;6.770;2022-08-25T06:19:41;20.70;2.90
32614;DHT22;19031;51.400;6.770;2022-08-25T06:22:07;20.90;1.00
32614;DHT22;19031;51.400;6.770;2022-08-25T06:24:33;21.00;1.00
32614;DHT22;19031;51.400;6.770;2022-08-25T06:26:58;21.10;1.00
32614;DHT22;19031;51.400;6.770;2022-08-25T06:29:24;21.20;1.00
32614;DHT22;19031;51.400;6.770;2022-08-25T06:31:51;21.40;1.00
32614;DHT22;19031;51.400;6.770;2022-08-25T06:34:17;21.60;1.00
32614;DHT22;19031;51.400;6.770;2022-08-25T06:36:43;21.80;1.00
32614;DHT22;19031;51.400;6.770;2022-08-25T06:39:09;22.00;1.00
32614;DHT22;19031;51.400;6.770;2022-08-25T06:41:34;22.20;1.00
32614;DHT22;19031;51.400;6.770;2022-08-25T06:44:00;22.40;1.00
32614;DHT22;19031;51.400;6.770;2022-08-25T06:46:26;22.70;99.90
32614;DHT22;19031;51.400;6.770;2022-08-25T06:48:54;22.80;99.90
32614;DHT22;19031;51.400;6.770;2022-08-25T06:51:23;23.00;99.90
32614;DHT22;19031;51.400;6.770;2022-08-25T06:53:50;23.20;99.90
32614;DHT22;19031;51.400;6.770;2022-08-25T06:56:18;23.50;99.90
32614;DHT22;19031;51.400;6.770;2022-08-25T06:58:44;23.70;99.90
32614;DHT22;19031;51.400;6.770;2022-08-25T07:01:21;23.90;99.90
32614;DHT22;19031;51.400;6.770;2022-08-25T07:03:55;24.20;99.90
32614;DHT22;19031;51.400;6.770;2022-08-25T07:06:22;24.40;99.90
32614;DHT22;19031;51.400;6.770;2022-08-25T07:08:49;24.70;99.90
32614;DHT22;19031;51.400;6.770;2022-08-25T07:11:15;25.00;99.90
32614;DHT22;19031;51.400;6.770;2022-08-25T07:13:41;25.20;95.10
32614;DHT22;19031;51.400;6.770;2022-08-25T07:16:07;25.40;1.00
32614;DHT22;19031;51.400;6.770;2022-08-25T07:18:35;25.50;99.90
32614;DHT22;19031;51.400;6.770;2022-08-25T07:21:01;25.80;99.90
32614;DHT22;19031;51.400;6.770;2022-08-25T07:23:27;26.10;99.90
32614;DHT22;19031;51.400;6.770;2022-08-25T07:25:53;26.30;99.90
32614;DHT22;19031;51.400;6.770;2022-08-25T07:28:20;26.50;66.90
32614;DHT22;19031;51.400;6.770;2022-08-25T07:30:46;26.70;99.90
32614;DHT22;19031;51.400;6.770;2022-08-25T07:33:12;27.10;45.60
32614;DHT22;19031;51.400;6.770;2022-08-25T07:35:37;27.20;99.90
32614;DHT22;19031;51.400;6.770;2022-08-25T07:38:05;27.40;23.20
32614;DHT22;19031;51.400;6.770;2022-08-25T07:40:36;27.60;99.90
32614;DHT22;19031;51.400;6.770;2022-08-25T07:43:06;27.80;99.90
32614;DHT22;19031;51.400;6.770;2022-08-25T07:45:35;27.90;99.90
32614;DHT22;19031;51.400;6.770;2022-08-25T07:48:07;28.20;99.90
32614;DHT22;19031;51.400;6.770;2022-08-25T07:50:35;28.50;1.00
32614;DHT22;19031;51.400;6.770;2022-08-25T07:53:03;28.70;99.90
32614;DHT22;19031;51.400;6.770;2022-08-25T07:55:30;28.70;99.90
32614;DHT22;19031;51.400;6.770;2022-08-25T07:57:56;28.90;99.90
32614;DHT22;19031;51.400;6.770;2022-08-25T08:00:25;29.20;99.90
32614;DHT22;19031;51.400;6.770;2022-08-25T08:02:52;29.30;99.90
32614;DHT22;19031;51.400;6.770;2022-08-25T08:05:18;29.50;99.90
32614;DHT22;19031;51.400;6.770;2022-08-25T08:07:43;29.70;99.90
32614;DHT22;19031;51.400;6.770;2022-08-25T08:10:15;30.00;29.40
32614;DHT22;19031;51.400;6.770;2022-08-25T08:12:41;30.20;1.00
32614;DHT22;19031;51.400;6.770;2022-08-25T08:15:08;30.30;99.90
32614;DHT22;19031;51.400;6.770;2022-08-25T08:17:34;30.40;99.90
32614;DHT22;19031;51.400;6.770;2022-08-25T08:19:59;30.60;1.00
32614;DHT22;19031;51.400;6.770;2022-08-25T08:22:25;30.80;99.90
32614;DHT22;19031;51.400;6.770;2022-08-25T08:24:51;31.10;99.90
32614;DHT22;19031;51.400;6.770;2022-08-25T08:27:17;31.10;99.90
32614;DHT22;19031;51.400;6.770;2022-08-25T08:29:42;31.40;99.90
32614;DHT22;19031;51.400;6.770;2022-08-25T08:32:10;31.60;40.80
32614;DHT22;19031;51.400;6.770;2022-08-25T08:34:40;31.80;37.50
32614;DHT22;19031;51.400;6.770;2022-08-25T08:37:06;31.70;1.00
32614;DHT22;19031;51.400;6.770;2022-08-25T08:39:32;31.80;1.00
32614;DHT22;19031;51.400;6.770;2022-08-25T08:44:49;32.00;99.90
32614;DHT22;19031;51.400;6.770;2022-08-25T08:50:31;32.60;99.90
32614;DHT22;19031;51.400;6.770;2022-08-25T08:55:54;32.90;99.90
32614;DHT22;19031;51.400;6.770;2022-08-25T09:01:46;33.50;99.90
32614;DHT22;19031;51.400;6.770;2022-08-25T09:04:28;33.70;99.90
32614;DHT22;19031;51.400;6.770;2022-08-25T09:06:56;33.60;99.90
32614;DHT22;19031;51.400;6.770;2022-08-25T09:09:29;34.00;99.90
32614;DHT22;19031;51.400;6.770;2022-08-25T09:12:25;34.30;99.90
32614;DHT22;19031;51.400;6.770;2022-08-25T09:15:19;34.70;99.90
32614;DHT22;19031;51.400;6.770;2022-08-25T09:18:05;34.70;81.80
32614;DHT22;19031;51.400;6.770;2022-08-25T09:20:39;34.30;72.60
32614;DHT22;19031;51.400;6.770;2022-08-25T09:23:32;34.70;50.40
32614;DHT22;19031;51.400;6.770;2022-08-25T09:29:13;35.30;19.80
32614;DHT22;19031;51.400;6.770;2022-08-25T09:31:40;35.90;4.90
32614;DHT22;19031;51.400;6.770;2022-08-25T09:34:21;35.90;1.00
32614;DHT22;19031;51.400;6.770;2022-08-25T09:36:48;35.80;1.00
32614;DHT22;19031;51.400;6.770;2022-08-25T09:39:17;36.10;1.00
32614;DHT22;19031;51.400;6.770;2022-08-25T09:41:48;36.20;1.00
32614;DHT22;19031;51.400;6.770;2022-08-25T09:44:24;36.30;1.00
32614;DHT22;19031;51.400;6.770;2022-08-25T09:46:59;36.40;1.00
32614;DHT22;19031;51.400;6.770;2022-08-25T09:49:36;36.40;1.00
32614;DHT22;19031;51.400;6.770;2022-08-25T09:52:38;36.30;1.00
32614;DHT22;19031;51.400;6.770;2022-08-25T09:57:51;36.90;1.00
32614;DHT22;19031;51.400;6.770;2022-08-25T10:00:30;37.40;99.90
32614;DHT22;19031;51.400;6.770;2022-08-25T10:03:15;37.50;99.90
32614;DHT22;19031;51.400;6.770;2022-08-25T10:08:31;37.10;99.90
32614;DHT22;19031;51.400;6.770;2022-08-25T10:10:59;37.00;99.90
32614;DHT22;19031;51.400;6.770;2022-08-25T10:18:36;38.20;99.90
32614;DHT22;19031;51.400;6.770;2022-08-25T10:21:12;38.50;99.90
32614;DHT22;19031;51.400;6.770;2022-08-25T10:23:48;38.60;99.90
32614;DHT22;19031;51.400;6.770;2022-08-25T10:26:54;38.00;99.90
32614;DHT22;19031;51.400;6.770;2022-08-25T10:35:14;38.90;99.90
32614;DHT22;19031;51.400;6.770;2022-08-25T10:38:10;38.80;99.90
32614;DHT22;19031;51.400;6.770;2022-08-25T10:43:29;39.90;99.90
32614;DHT22;19031;51.400;6.770;2022-08-25T10:49:02;39.20;99.90
32614;DHT22;19031;51.400;6.770;2022-08-25T10:51:49;39.50;99.90
32614;DHT22;19031;51.400;6.770;2022-08-25T10:58:00;39.40;99.90
32614;DHT22;19031;51.400;6.770;2022-08-25T11:00:36;39.60;99.90
32614;DHT22;19031;51.400;6.770;2022-08-25T11:03:11;39.90;99.90
32614;DHT22;19031;51.400;6.770;2022-08-25T11:06:00;39.50;99.90
32614;DHT22;19031;51.400;6.770;2022-08-25T11:11:12;40.30;99.90
32614;DHT22;19031;51.400;6.770;2022-08-25T11:14:05;40.60;99.90
32614;DHT22;19031;51.400;6.770;2022-08-25T11:16:42;40.40;99.90
32614;DHT22;19031;51.400;6.770;2022-08-25T11:19:34;40.20;99.90
32614;DHT22;19031;51.400;6.770;2022-08-25T11:24:51;40.00;99.90
32614;DHT22;19031;51.400;6.770;2022-08-25T11:27:24;40.10;99.90
32614;DHT22;19031;51.400;6.770;2022-08-25T11:30:03;40.10;99.90
32614;DHT22;19031;51.400;6.770;2022-08-25T11:32:31;40.40;99.90
32614;DHT22;19031;51.400;6.770;2022-08-25T11:35:02;40.60;99.90
32614;DHT22;19031;51.400;6.770;2022-08-25T11:37:29;40.50;99.90
32614;DHT22;19031;51.400;6.770;2022-08-25T11:40:37;41.00;99.90
32614;DHT22;19031;51.400;6.770;2022-08-25T11:49:35;40.90;99.90
32614;DHT22;19031;51.400;6.770;2022-08-25T11:51:44;40.90;99.90
32614;DHT22;19031;51.400;6.770;2022-08-25T11:57:06;41.80;99.90
32614;DHT22;19031;51.400;6.770;2022-08-25T12:04:54;41.90;99.90
32614;DHT22;19031;51.400;6.770;2022-08-25T12:07:24;42.00;99.90
32614;DHT22;19031;51.400;6.770;2022-08-25T12:18:36;41.60;99.90
32614;DHT22;19031;51.400;6.770;2022-08-25T12:23:33;41.20;99.90
32614;DHT22;19031;51.400;6.770;2022-08-25T12:31:45;41.40;99.90
32614;DHT22;19031;51.400;6.770;2022-08-25T12:34:26;41.60;99.90
32614;DHT22;19031;51.400;6.770;2022-08-25T12:37:17;41.80;99.90
32614;DHT22;19031;51.400;6.770;2022-08-25T12:47:32;42.30;99.90
32614;DHT22;19031;51.400;6.770;2022-08-25T12:50:27;42.10;99.90
32614;DHT22;19031;51.400;6.770;2022-08-25T12:52:54;41.90;99.90
32614;DHT22;19031;51.400;6.770;2022-08-25T12:55:25;42.10;99.90
32614;DHT22;19031;51.400;6.770;2022-08-25T12:57:53;42.00;99.90
32614;DHT22;19031;51.400;6.770;2022-08-25T13:00:28;41.90;99.90
32614;DHT22;19031;51.400;6.770;2022-08-25T13:11:12;42.60;99.90
32614;DHT22;19031;51.400;6.770;2022-08-25T13:13:53;42.40;99.90
32614;DHT22;19031;51.400;6.770;2022-08-25T13:16:26;42.50;99.90
32614;DHT22;19031;51.400;6.770;2022-08-25T13:18:53;42.20;99.90
32614;DHT22;19031;51.400;6.770;2022-08-25T13:23:58;42.20;99.90
32614;DHT22;19031;51.400;6.770;2022-08-25T13:26:33;42.00;99.90
32614;DHT22;19031;51.400;6.770;2022-08-25T13:29:13;42.20;99.90
32614;DHT22;19031;51.400;6.770;2022-08-25T13:31:55;42.60;99.90
32614;DHT22;19031;51.400;6.770;2022-08-25T13:34:28;42.30;99.90
32614;DHT22;19031;51.400;6.770;2022-08-25T13:36:55;42.80;99.90
32614;DHT22;19031;51.400;6.770;2022-08-25T13:39:43;42.40;99.90
32614;DHT22;19031;51.400;6.770;2022-08-25T13:42:14;42.60;99.90
32614;DHT22;19031;51.400;6.770;2022-08-25T13:44:43;42.60;99.90
32614;DHT22;19031;51.400;6.770;2022-08-25T13:47:11;42.50;99.90
32614;DHT22;19031;51.400;6.770;2022-08-25T13:49:39;42.20;99.90
32614;DHT22;19031;51.400;6.770;2022-08-25T13:52:06;41.90;99.90
32614;DHT22;19031;51.400;6.770;2022-08-25T13:54:38;42.20;99.90
32614;DHT22;19031;51.400;6.770;2022-08-25T13:57:26;42.00;99.90
32614;DHT22;19031;51.400;6.770;2022-08-25T14:00:09;41.60;99.90
32614;DHT22;19031;51.400;6.770;2022-08-25T14:02:49;41.70;99.90
32614;DHT22;19031;51.400;6.770;2022-08-25T14:08:01;41.90;99.90
32614;DHT22;19031;51.400;6.770;2022-08-25T14:10:37;42.10;99.90
32614;DHT22;19031;51.400;6.770;2022-08-25T14:15:52;41.20;99.90
32614;DHT22;19031;51.400;6.770;2022-08-25T14:18:29;40.60;99.90
32614;DHT22;19031;51.400;6.770;2022-08-25T14:20:57;40.60;99.90
32614;DHT22;19031;51.400;6.770;2022-08-25T14:23:28;40.60;99.90
32614;DHT22;19031;51.400;6.770;2022-08-25T14:25:56;40.40;99.90
32614;DHT22;19031;51.400;6.770;2022-08-25T14:28:27;40.80;99.90
32614;DHT22;19031;51.400;6.770;2022-08-25T14:30:56;41.00;99.90
32614;DHT22;19031;51.400;6.770;2022-08-25T14:33:27;40.80;99.90
32614;DHT22;19031;51.400;6.770;2022-08-25T14:36:00;41.00;99.90
32614;DHT22;19031;51.400;6.770;2022-08-25T14:38:27;41.00;99.90
32614;DHT22;19031;51.400;6.770;2022-08-25T14:40:53;41.20;99.90
32614;DHT22;19031;51.400;6.770;2022-08-25T14:43:19;41.30;99.90
32614;DHT22;19031;51.400;6.770;2022-08-25T14:45:46;41.00;99.90
32614;DHT22;19031;51.400;6.770;2022-08-25T14:48:31;41.10;99.90
32614;DHT22;19031;51.400;6.770;2022-08-25T14:51:00;41.20;99.90
32614;DHT22;19031;51.400;6.770;2022-08-25T14:53:26;41.00;99.90
32614;DHT22;19031;51.400;6.770;2022-08-25T14:55:52;41.10;99.90
32614;DHT22;19031;51.400;6.770;2022-08-25T14:58:22;41.10;99.90
32614;DHT22;19031;51.400;6.770;2022-08-25T15:00:48;41.00;99.90
32614;DHT22;19031;51.400;6.770;2022-08-25T15:03:17;41.10;99.90
32614;DHT22;19031;51.400;6.770;2022-08-25T15:05:46;40.90;99.90
32614;DHT22;19031;51.400;6.770;2022-08-25T15:08:11;40.80;99.90
32614;DHT22;19031;51.400;6.770;2022-08-25T15:11:00;40.80;99.90
32614;DHT22;19031;51.400;6.770;2022-08-25T15:13:26;41.00;99.90
32614;DHT22;19031;51.400;6.770;2022-08-25T15:15:52;41.00;99.90
32614;DHT22;19031;51.400;6.770;2022-08-25T15:18:18;40.80;99.90
32614;DHT22;19031;51.400;6.770;2022-08-25T15:20:44;40.80;99.90
32614;DHT22;19031;51.400;6.770;2022-08-25T15:23:09;40.40;99.90
32614;DHT22;19031;51.400;6.770;2022-08-25T15:25:35;40.30;99.90
32614;DHT22;19031;51.400;6.770;2022-08-25T15:28:07;40.30;99.90
32614;DHT22;19031;51.400;6.770;2022-08-25T15:30:36;40.30;99.90
32614;DHT22;19031;51.400;6.770;2022-08-25T15:33:02;40.10;99.90
32614;DHT22;19031;51.400;6.770;2022-08-25T15:35:27;39.70;99.90
32614;DHT22;19031;51.400;6.770;2022-08-25T15:37:53;40.10;99.90
32614;DHT22;19031;51.400;6.770;2022-08-25T15:40:19;40.00;99.90
32614;DHT22;19031;51.400;6.770;2022-08-25T15:42:45;39.60;99.90
32614;DHT22;19031;51.400;6.770;2022-08-25T15:45:13;39.50;99.90
32614;DHT22;19031;51.400;6.770;2022-08-25T15:47:42;39.50;99.90
32614;DHT22;19031;51.400;6.770;2022-08-25T15:50:11;39.30;99.90
32614;DHT22;19031;51.400;6.770;2022-08-25T15:52:39;39.30;99.90
32614;DHT22;19031;51.400;6.770;2022-08-25T15:55:08;39.20;99.90
32614;DHT22;19031;51.400;6.770;2022-08-25T15:57:34;38.80;99.90
32614;DHT22;19031;51.400;6.770;2022-08-25T15:59:59;38.60;99.90
32614;DHT22;19031;51.400;6.770;2022-08-25T16:02:25;38.60;99.90
32614;DHT22;19031;51.400;6.770;2022-08-25T16:04:51;38.60;99.90
32614;DHT22;19031;51.400;6.770;2022-08-25T16:07:18;38.50;99.90
32614;DHT22;19031;51.400;6.770;2022-08-25T16:09:45;38.40;99.90
32614;DHT22;19031;51.400;6.770;2022-08-25T16:12:11;38.20;99.90
32614;DHT22;19031;51.400;6.770;2022-08-25T16:14:37;38.20;99.90
32614;DHT22;19031;51.400;6.770;2022-08-25T16:17:04;37.90;99.90
32614;DHT22;19031;51.400;6.770;2022-08-25T16:19:30;38.00;99.90
32614;DHT22;19031;51.400;6.770;2022-08-25T16:21:57;38.00;99.90
32614;DHT22;19031;51.400;6.770;2022-08-25T16:24:25;37.70;99.90
32614;DHT22;19031;51.400;6.770;2022-08-25T16:26:51;37.70;99.90
32614;DHT22;19031;51.400;6.770;2022-08-25T16:29:18;37.60;99.90
32614;DHT22;19031;51.400;6.770;2022-08-25T16:31:44;37.60;99.90
32614;DHT22;19031;51.400;6.770;2022-08-25T16:34:13;37.50;99.90
32614;DHT22;19031;51.400;6.770;2022-08-25T16:36:39;37.50;99.90
32614;DHT22;19031;51.400;6.770;2022-08-25T16:39:04;37.20;99.90
32614;DHT22;19031;51.400;6.770;2022-08-25T16:41:30;37.30;99.90
32614;DHT22;19031;51.400;6.770;2022-08-25T16:44:00;37.00;99.90
32614;DHT22;19031;51.400;6.770;2022-08-25T16:46:32;36.80;99.90
32614;DHT22;19031;51.400;6.770;2022-08-25T16:49:02;36.80;99.90
32614;DHT22;19031;51.400;6.770;2022-08-25T16:51:31;36.70;99.90
32614;DHT22;19031;51.400;6.770;2022-08-25T16:53:57;36.70;99.90
32614;DHT22;19031;51.400;6.770;2022-08-25T16:56:42;36.40;99.90
32614;DHT22;19031;51.400;6.770;2022-08-25T16:59:12;36.30;99.90
32614;DHT22;19031;51.400;6.770;2022-08-25T17:01:38;36.10;99.90
32614;DHT22;19031;51.400;6.770;2022-08-25T17:04:05;36.20;99.90
32614;DHT22;19031;51.400;6.770;2022-08-25T17:06:35;36.10;99.90
32614;DHT22;19031;51.400;6.770;2022-08-25T17:09:01;36.00;99.90
32614;DHT22;19031;51.400;6.770;2022-08-25T17:11:31;35.80;99.90
32614;DHT22;19031;51.400;6.770;2022-08-25T17:14:01;35.70;99.90
32614;DHT22;19031;51.400;6.770;2022-08-25T17:16:30;35.60;99.90
32614;DHT22;19031;51.400;6.770;2022-08-25T17:19:01;35.40;99.90
32614;DHT22;19031;51.400;6.770;2022-08-25T17:21:32;35.30;99.90
32614;DHT22;19031;51.400;6.770;2022-08-25T17:23:58;35.10;99.90
32614;DHT22;19031;51.400;6.770;2022-08-25T17:26:26;34.90;99.90
32614;DHT22;19031;51.400;6.770;2022-08-25T17:28:52;34.80;99.90
32614;DHT22;19031;51.400;6.770;2022-08-25T17:31:18;34.70;99.90